Time,TemperatureF,DewpointF,PressureIn,WindDirection,WindDirectionDegrees,WindSpeedMPH,WindSpeedGustMPH,Humidity,HourlyPrecipIn,Conditions,Clouds,dailyrainin,SolarRadiationWatts/m^2,SoftwareType,DateUTC
2013-01-07 00:00:00,17.7,-16.1,30.37,SW,216,0.0,-999.0,6,-99.99,,,0.01,0.0,cwc,2013-01-07 07:00:00,
2013-01-07 00:05:00,16.7,-17.5,30.36,SW,216,0.0,-999.0,5,-99.99,,,0.00,0.0,cwc,2013-01-07 07:05:00,
2013-01-07 00:10:00,16.5,16.5,30.36,SW,216,0.0,-999.0,100,-99.99,,,0.00,0.0,cwc,2013-01-07 07:10:00,
2013-01-07 00:15:00,26.1,26.1,30.36,SW,216,0.0,-999.0,100,-99.99,,,0.00,0.0,cwc,2013-01-07 07:15:00,
2013-01-07 00:20:00,22.1,22.1,30.23,SW,216,0.0,-999.0,100,-99.99,,,0.00,0.0,cwc,2013-01-07 07:20:00,
2013-01-07 00:25:00,21.6,21.6,30.23,SW,216,0.0,-999.0,100,-99.99,,,0.00,0.0,cwc,2013-01-07 07:25:00,
2013-01-07 00:30:00,23.0,23.0,30.23,SW,216,0.0,-999.0,100,-99.99,,,0.00,0.0,cwc,2013-01-07 07:30:00,
2013-01-07 00:35:00,20.2,20.2,30.25,SW,216,0.0,-999.0,100,-99.99,,,0.00,0.0,cwc,2013-01-07 07:35:00,
2013-01-07 00:40:00,19.9,-16.1,30.25,SW,216,0.0,-999.0,0,-99.99,,,0.00,0.0,cwc,2013-01-07 07:40:00,
2013-01-07 00:45:00,22.7,22.7,30.25,SW,216,0.0,-999.0,100,-99.99,,,0.00,0.0,cwc,2013-01-07 07:45:00,
2013-01-07 00:50:00,22.5,-13.5,30.25,SW,216,0.0,-999.0,0,-99.99,,,0.00,0.0,cwc,2013-01-07 07:50:00,
2013-01-07 00:55:00,28.2,28.2,30.25,SW,216,0.0,-999.0,100,-99.99,,,0.00,0.0,cwc,2013-01-07 07:55:00,
2013-01-07 01:00:00,21.1,8.9,30.25,SW,216,0.0,-999.0,66,-99.99,,,0.00,0.0,cwc,2013-01-07 08:00:00,
2013-01-07 01:05:00,25.4,-3.0,30.26,SW,216,0.0,-999.0,21,-99.99,,,0.00,0.0,cwc,2013-01-07 08:05:00,
2013-01-07 01:10:00,21.1,-1.9,30.26,SW,216,0.0,-999.0,36,-99.99,,,0.00,0.0,cwc,2013-01-07 08:10:00,
2013-01-07 01:15:00,19.4,-6.5,30.26,SW,216,0.0,-999.0,28,-99.99,,,0.00,0.0,cwc,2013-01-07 08:15:00,
2013-01-07 01:20:00,20.5,-3.3,30.23,SW,216,0.0,-999.0,34,-99.99,,,0.00,0.0,cwc,2013-01-07 08:20:00,
2013-01-07 01:25:00,17.7,-8.6,30.23,SW,216,0.0,-999.0,27,-99.99,,,0.00,0.0,cwc,2013-01-07 08:25:00,
2013-01-07 01:30:00,18.8,-8.9,30.23,SW,216,0.0,-999.0,23,-99.99,,,0.00,0.0,cwc,2013-01-07 08:30:00,
2013-01-07 01:35:00,16.9,-15.5,30.23,SW,216,0.0,-999.0,10,-99.99,,,0.00,0.0,cwc,2013-01-07 08:35:00,
2013-01-07 01:40:00,16.9,-13.3,30.23,SW,216,0.0,-999.0,16,-99.99,,,0.00,0.0,cwc,2013-01-07 08:40:00,
2013-01-07 01:45:00,23.0,3.2,30.23,SW,216,0.0,-999.0,45,-99.99,,,0.00,0.0,cwc,2013-01-07 08:45:00,
2013-01-07 01:50:00,24.2,-0.6,30.15,SW,216,0.0,-999.0,31,-99.99,,,0.00,0.0,cwc,2013-01-07 08:50:00,
2013-01-07 01:55:00,19.9,-4.6,30.15,SW,216,0.0,-999.0,32,-99.99,,,0.00,0.0,cwc,2013-01-07 08:55:00,
2013-01-07 02:00:00,18.9,-5.6,30.15,SW,216,0.0,-999.0,32,-99.99,,,0.00,0.0,cwc,2013-01-07 09:00:00,
2013-01-07 02:05:00,18.8,-5.0,30.21,SW,216,0.0,-999.0,34,-99.99,,,0.00,0.0,cwc,2013-01-07 09:05:00,
2013-01-07 02:10:00,19.2,-3.5,30.21,SW,216,0.0,-999.0,37,-99.99,,,0.00,0.0,cwc,2013-01-07 09:10:00,
2013-01-07 02:15:00,19.4,-3.3,30.21,SW,216,0.0,-999.0,37,-99.99,,,0.00,0.0,cwc,2013-01-07 09:15:00,
2013-01-07 02:20:00,20.0,-2.7,30.24,SW,216,0.0,-999.0,37,-99.99,,,0.00,0.0,cwc,2013-01-07 09:20:00,
2013-01-07 02:25:00,17.8,-2.0,30.24,SW,216,0.0,-999.0,45,-99.99,,,0.00,0.0,cwc,2013-01-07 09:25:00,
2013-01-07 02:30:00,16.2,-2.2,30.24,SSW,210,0.0,-999.0,49,-99.99,,,0.00,0.0,cwc,2013-01-07 09:30:00,
2013-01-07 02:35:00,16.1,-2.3,30.25,SSW,205,0.0,-999.0,49,-99.99,,,0.00,0.0,cwc,2013-01-07 09:35:00,
2013-01-07 02:40:00,16.7,-12.1,30.25,SSW,205,0.0,-999.0,20,-99.99,,,0.00,0.0,cwc,2013-01-07 09:40:00,
2013-01-07 02:45:00,20.0,-2.3,30.25,SSW,205,0.0,-999.0,38,-99.99,,,0.00,0.0,cwc,2013-01-07 09:45:00,
2013-01-07 02:50:00,17.7,-8.2,30.22,SSW,205,0.0,-999.0,28,-99.99,,,0.00,0.0,cwc,2013-01-07 09:50:00,
2013-01-07 02:55:00,22.2,0.6,30.22,SSW,205,0.0,-999.0,40,-99.99,,,0.00,0.0,cwc,2013-01-07 09:55:00,
2013-01-07 03:00:00,19.5,-9.3,30.22,SSW,205,0.0,-999.0,20,-99.99,,,0.00,0.0,cwc,2013-01-07 10:00:00,
2013-01-07 03:05:00,20.0,-6.6,30.24,SSW,205,0.0,-999.0,26,-99.99,,,0.00,0.0,cwc,2013-01-07 10:05:00,
2013-01-07 03:10:00,18.9,-9.2,30.24,SSW,205,0.0,-999.0,22,-99.99,,,0.00,0.0,cwc,2013-01-07 10:10:00,
2013-01-07 03:15:00,17.8,-12.4,30.24,SSW,205,0.0,-999.0,16,-99.99,,,0.00,0.0,cwc,2013-01-07 10:15:00,
2013-01-07 03:20:00,17.0,-14.0,30.22,SSW,205,0.0,-999.0,14,-99.99,,,0.00,0.0,cwc,2013-01-07 10:20:00,
2013-01-07 03:25:00,19.1,-10.4,30.22,SSW,205,0.0,-999.0,18,-99.99,,,0.00,0.0,cwc,2013-01-07 10:25:00,
2013-01-07 03:30:00,20.8,-6.2,30.22,SSW,205,0.0,-999.0,25,-99.99,,,0.00,0.0,cwc,2013-01-07 10:30:00,
2013-01-07 03:35:00,20.5,-7.2,30.19,SSW,205,0.0,-999.0,23,-99.99,,,0.00,0.0,cwc,2013-01-07 10:35:00,
2013-01-07 03:40:00,19.5,-10.0,30.19,SSW,205,0.0,-999.0,18,-99.99,,,0.00,0.0,cwc,2013-01-07 10:40:00,
2013-01-07 03:50:00,17.7,-13.6,30.19,SSW,205,0.0,-999.0,13,-99.99,,,0.00,0.0,cwc,2013-01-07 10:50:00,
2013-01-07 04:00:00,17.2,-14.1,30.19,NNW,347,6.0,-999.0,13,-99.99,,,0.00,0.0,cwc,2013-01-07 11:00:00,
2013-01-07 04:05:00,17.2,-13.4,30.21,NNE,32,0.0,-999.0,15,-99.99,,,0.00,0.0,cwc,2013-01-07 11:05:00,
2013-01-07 04:10:00,17.3,-13.3,30.21,NNW,332,0.0,-999.0,15,-99.99,,,0.00,0.0,cwc,2013-01-07 11:10:00,
2013-01-07 04:15:00,17.3,-12.9,30.21,NNW,333,0.0,-999.0,16,-99.99,,,0.00,0.0,cwc,2013-01-07 11:15:00,
2013-01-07 04:20:00,18.1,14.1,30.19,NNW,333,1.0,-999.0,89,-99.99,,,0.00,0.0,cwc,2013-01-07 11:20:00,
2013-01-07 04:25:00,18.3,11.5,30.19,NNE,16,4.0,-999.0,81,-99.99,,,0.00,0.0,cwc,2013-01-07 11:25:00,
2013-01-07 04:30:00,18.1,9.1,30.19,NE,38,0.0,-999.0,75,-99.99,,,0.00,0.0,cwc,2013-01-07 11:30:00,
2013-01-07 04:35:00,18.3,8.6,30.25,ESE,114,2.0,-999.0,73,-99.99,,,0.00,0.0,cwc,2013-01-07 11:35:00,
2013-01-07 04:40:00,19.5,11.9,30.25,SSE,164,6.0,-999.0,79,-99.99,,,0.00,0.0,cwc,2013-01-07 11:40:00,
2013-01-07 04:45:00,19.2,8.8,30.25,SSW,193,1.0,-999.0,71,-99.99,,,0.00,0.0,cwc,2013-01-07 11:45:00,
2013-01-07 04:50:00,20.2,11.6,30.25,SSW,193,1.0,-999.0,76,-99.99,,,0.00,0.0,cwc,2013-01-07 11:50:00,
2013-01-07 04:55:00,19.2,12.0,30.25,SSW,198,4.0,-999.0,80,-99.99,,,0.00,0.0,cwc,2013-01-07 11:55:00,
2013-01-07 05:00:00,18.9,9.5,30.25,SSW,199,0.0,-999.0,74,-99.99,,,0.00,0.0,cwc,2013-01-07 12:00:00,
2013-01-07 05:05:00,18.9,9.2,30.25,SSW,199,0.0,-999.0,73,-99.99,,,0.00,0.0,cwc,2013-01-07 12:05:00,
2013-01-07 05:10:00,19.4,5.4,30.25,SSW,199,0.0,-999.0,61,-99.99,,,0.00,0.0,cwc,2013-01-07 12:10:00,
2013-01-07 05:15:00,19.4,8.2,30.25,SSW,199,0.0,-999.0,69,-99.99,,,0.00,0.0,cwc,2013-01-07 12:15:00,
2013-01-07 05:20:00,18.8,5.8,30.26,SSW,199,0.0,-999.0,64,-99.99,,,0.00,0.0,cwc,2013-01-07 12:20:00,
2013-01-07 05:25:00,19.5,9.1,30.26,SSW,199,0.0,-999.0,71,-99.99,,,0.00,0.0,cwc,2013-01-07 12:25:00,
2013-01-07 05:30:00,18.4,9.0,30.26,South,171,1.0,-999.0,74,-99.99,,,0.00,0.0,cwc,2013-01-07 12:30:00,
2013-01-07 05:35:00,17.3,4.7,30.26,South,169,0.0,-999.0,65,-99.99,,,0.00,0.0,cwc,2013-01-07 12:35:00,
2013-01-07 05:40:00,17.0,4.0,30.26,ENE,61,0.0,-999.0,64,-99.99,,,0.00,0.0,cwc,2013-01-07 12:40:00,
2013-01-07 05:45:00,17.8,4.8,30.26,NW,312,0.0,-999.0,64,-99.99,,,0.00,0.0,cwc,2013-01-07 12:45:00,
2013-01-07 05:50:00,18.0,3.2,30.27,NNE,18,6.0,-999.0,59,-99.99,,,0.00,0.0,cwc,2013-01-07 12:50:00,
2013-01-07 05:55:00,17.8,2.0,30.27,NNE,24,1.0,-999.0,56,-99.99,,,0.00,0.0,cwc,2013-01-07 12:55:00,
2013-01-07 06:00:00,18.4,1.5,30.27,NE,40,7.0,-999.0,53,-99.99,,,0.00,0.0,cwc,2013-01-07 13:00:00,
2013-01-07 06:05:00,19.1,1.8,30.28,North,8,9.0,-999.0,52,-99.99,,,0.00,0.0,cwc,2013-01-07 13:05:00,
2013-01-07 06:10:00,19.4,1.4,30.28,NE,34,8.0,-999.0,50,-99.99,,,0.00,0.0,cwc,2013-01-07 13:10:00,
2013-01-07 06:15:00,19.2,0.5,30.28,NE,34,7.0,-999.0,48,-99.99,,,0.00,0.0,cwc,2013-01-07 13:15:00,
2013-01-07 06:20:00,18.0,1.1,30.34,NE,35,0.0,-999.0,53,-99.99,,,0.00,0.0,cwc,2013-01-07 13:20:00,
2013-01-07 06:25:00,18.0,2.5,30.34,NE,40,0.0,-999.0,57,-99.99,,,0.00,0.0,cwc,2013-01-07 13:25:00,
2013-01-07 06:30:00,17.2,1.7,30.34,NNE,24,6.0,-999.0,57,-99.99,,,0.00,0.0,cwc,2013-01-07 13:30:00,
2013-01-07 06:35:00,16.5,1.4,30.36,NNE,24,0.0,-999.0,58,-99.99,,,0.00,0.0,cwc,2013-01-07 13:35:00,
2013-01-07 06:40:00,16.2,1.4,30.36,NNE,24,2.0,-999.0,59,-99.99,,,0.00,0.0,cwc,2013-01-07 13:40:00,
2013-01-07 06:45:00,15.6,1.6,30.36,East,79,2.0,-999.0,61,-99.99,,,0.00,0.0,cwc,2013-01-07 13:45:00,
2013-01-07 06:50:00,14.8,3.6,30.36,SW,215,0.0,-999.0,69,-99.99,,,0.00,0.0,cwc,2013-01-07 13:50:00,
2013-01-07 06:55:00,15.1,2.9,30.36,NNW,336,0.0,-999.0,66,-99.99,,,0.00,0.0,cwc,2013-01-07 13:55:00,
2013-01-07 07:00:00,16.2,5.8,30.36,NE,41,4.0,-999.0,71,-99.99,,,0.00,0.0,cwc,2013-01-07 14:00:00,
2013-01-07 07:05:00,18.0,1.4,30.37,NE,55,8.0,-999.0,54,-99.99,,,0.00,0.0,cwc,2013-01-07 14:05:00,
2013-01-07 07:10:00,18.3,1.4,30.37,North,0,2.0,-999.0,53,-99.99,,,0.00,0.0,cwc,2013-01-07 14:10:00,
2013-01-07 07:15:00,18.4,0.0,30.37,NNW,328,4.0,-999.0,49,-99.99,,,0.00,0.0,cwc,2013-01-07 14:15:00,
2013-01-07 07:20:00,18.4,1.1,30.36,NW,318,0.0,-999.0,52,-99.99,,,0.00,0.0,cwc,2013-01-07 14:20:00,
2013-01-07 07:25:00,18.6,1.0,30.36,NNE,32,0.0,-999.0,51,-99.99,,,0.00,0.0,cwc,2013-01-07 14:25:00,
2013-01-07 07:30:00,18.1,-0.6,30.36,WNW,298,4.0,-999.0,48,-99.99,,,0.00,0.0,cwc,2013-01-07 14:30:00,
2013-01-07 07:35:00,18.3,-0.4,30.37,NE,41,8.0,-999.0,48,-99.99,,,0.00,0.0,cwc,2013-01-07 14:35:00,
2013-01-07 07:40:00,18.1,-1.0,30.37,NNE,31,16.0,-999.0,47,-99.99,,,0.00,0.0,cwc,2013-01-07 14:40:00,
2013-01-07 07:45:00,18.1,0.1,30.37,NE,49,20.0,-999.0,50,-99.99,,,0.00,0.0,cwc,2013-01-07 14:45:00,
2013-01-07 07:50:00,17.8,-0.2,30.35,NE,35,15.0,-999.0,50,-99.99,,,0.00,0.0,cwc,2013-01-07 14:50:00,
2013-01-07 07:55:00,18.4,-1.0,30.35,ENE,68,8.0,-999.0,46,-99.99,,,0.00,0.0,cwc,2013-01-07 14:55:00,
2013-01-07 08:00:00,18.9,-0.9,30.35,NE,45,10.0,-999.0,45,-99.99,,,0.00,0.0,cwc,2013-01-07 15:00:00,
2013-01-07 08:10:00,18.6,-0.5,30.34,NW,304,4.0,-999.0,47,-99.99,,,0.00,0.0,cwc,2013-01-07 15:10:00,
2013-01-07 08:15:00,18.3,-0.8,30.34,North,353,8.0,-999.0,47,-99.99,,,0.00,0.0,cwc,2013-01-07 15:15:00,
2013-01-07 08:20:00,18.1,-0.6,30.40,NE,37,4.0,-999.0,48,-99.99,,,0.00,0.0,cwc,2013-01-07 15:20:00,
2013-01-07 08:25:00,18.3,1.0,30.40,NE,35,6.0,-999.0,52,-99.99,,,0.00,0.0,cwc,2013-01-07 15:25:00,
2013-01-07 08:30:00,18.1,-1.0,30.40,NNE,16,8.0,-999.0,47,-99.99,,,0.00,0.0,cwc,2013-01-07 15:30:00,
2013-01-07 08:35:00,18.0,-1.1,30.41,NNE,31,9.0,-999.0,47,-99.99,,,0.00,0.0,cwc,2013-01-07 15:35:00,
2013-01-07 08:40:00,18.0,-1.1,30.41,NE,44,9.0,-999.0,47,-99.99,,,0.00,0.0,cwc,2013-01-07 15:40:00,
2013-01-07 08:45:00,17.2,-1.5,30.41,North,11,17.0,-999.0,48,-99.99,,,0.00,0.0,cwc,2013-01-07 15:45:00,
2013-01-07 08:50:00,16.9,-1.1,30.42,NNE,16,14.0,-999.0,50,-99.99,,,0.00,0.0,cwc,2013-01-07 15:50:00,
2013-01-07 08:55:00,17.2,-0.1,30.42,NE,41,10.0,-999.0,52,-99.99,,,0.00,0.0,cwc,2013-01-07 15:55:00,
2013-01-07 09:00:00,17.7,-0.7,30.42,North,7,9.0,-999.0,49,-99.99,,,0.00,0.0,cwc,2013-01-07 16:00:00,
2013-01-07 09:05:00,18.4,0.0,30.40,NNE,14,13.0,-999.0,49,-99.99,,,0.00,0.0,cwc,2013-01-07 16:05:00,
2013-01-07 09:10:00,18.9,0.2,30.40,North,10,14.0,-999.0,48,-99.99,,,0.00,0.0,cwc,2013-01-07 16:10:00,
2013-01-07 09:15:00,18.8,-0.3,30.40,NNE,16,4.0,-999.0,47,-99.99,,,0.00,0.0,cwc,2013-01-07 16:15:00,
2013-01-07 09:20:00,18.8,-0.3,30.38,NNE,16,8.0,-999.0,47,-99.99,,,0.00,0.0,cwc,2013-01-07 16:20:00,
2013-01-07 09:25:00,19.4,1.0,30.38,NNE,24,2.0,-999.0,49,-99.99,,,0.00,0.0,cwc,2013-01-07 16:25:00,
2013-01-07 09:30:00,19.9,1.2,30.38,North,11,11.0,-999.0,48,-99.99,,,0.00,0.0,cwc,2013-01-07 16:30:00,
2013-01-07 09:35:00,20.5,1.4,30.38,NNE,18,6.0,-999.0,47,-99.99,,,0.00,0.0,cwc,2013-01-07 16:35:00,
2013-01-07 09:40:00,20.8,1.7,30.38,NNE,30,0.0,-999.0,47,-99.99,,,0.00,0.0,cwc,2013-01-07 16:40:00,
2013-01-07 09:45:00,21.8,1.6,30.38,NNE,23,6.0,-999.0,44,-99.99,,,0.00,0.0,cwc,2013-01-07 16:45:00,
2013-01-07 09:50:00,22.1,1.9,30.36,North,7,4.0,-999.0,44,-99.99,,,0.00,0.0,cwc,2013-01-07 16:50:00,
2013-01-07 09:55:00,22.2,1.3,30.36,North,0,7.0,-999.0,42,-99.99,,,0.00,0.0,cwc,2013-01-07 16:55:00,
2013-01-07 10:00:00,22.1,1.6,30.36,NNE,18,9.0,-999.0,43,-99.99,,,0.00,0.0,cwc,2013-01-07 17:00:00,
2013-01-07 10:05:00,22.1,0.9,30.37,North,1,11.0,-999.0,41,-99.99,,,0.00,0.0,cwc,2013-01-07 17:05:00,
2013-01-07 10:10:00,21.9,1.4,30.37,NNE,32,11.0,-999.0,43,-99.99,,,0.00,0.0,cwc,2013-01-07 17:10:00,
2013-01-07 10:15:00,22.4,2.6,30.37,NNE,23,15.0,-999.0,45,-99.99,,,0.00,0.0,cwc,2013-01-07 17:15:00,
2013-01-07 10:20:00,22.9,2.7,30.33,NNE,16,8.0,-999.0,44,-99.99,,,0.00,0.0,cwc,2013-01-07 17:20:00,
2013-01-07 10:25:00,23.9,3.4,30.33,North,8,2.0,-999.0,43,-99.99,,,0.00,0.0,cwc,2013-01-07 17:25:00,
2013-01-07 10:30:00,24.5,3.3,30.33,North,8,0.0,-999.0,41,-99.99,,,0.00,0.0,cwc,2013-01-07 17:30:00,
2013-01-07 10:35:00,25.4,3.8,30.30,North,0,6.0,-999.0,40,-99.99,,,0.00,0.0,cwc,2013-01-07 17:35:00,
2013-01-07 10:40:00,25.7,4.5,30.30,North,359,8.0,-999.0,41,-99.99,,,0.00,0.0,cwc,2013-01-07 17:40:00,
2013-01-07 10:45:00,25.6,4.0,30.30,NNE,20,9.0,-999.0,40,-99.99,,,0.00,0.0,cwc,2013-01-07 17:45:00,
2013-01-07 10:50:00,26.3,4.3,30.28,North,356,7.0,-999.0,39,-99.99,,,0.00,0.0,cwc,2013-01-07 17:50:00,
2013-01-07 10:55:00,26.4,3.7,30.28,North,11,8.0,-999.0,37,-99.99,,,0.00,0.0,cwc,2013-01-07 17:55:00,
2013-01-07 11:00:00,26.9,4.6,30.28,NE,40,4.0,-999.0,38,-99.99,,,0.00,0.0,cwc,2013-01-07 18:00:00,
2013-01-07 11:05:00,27.3,5.3,30.26,NNE,18,13.0,-999.0,39,-99.99,,,0.00,0.0,cwc,2013-01-07 18:05:00,
2013-01-07 11:10:00,27.5,5.2,30.26,North,0,10.0,-999.0,38,-99.99,,,0.00,0.0,cwc,2013-01-07 18:10:00,
2013-01-07 11:15:00,28.4,5.4,30.26,North,4,6.0,-999.0,36,-99.99,,,0.00,0.0,cwc,2013-01-07 18:15:00,
2013-01-07 11:20:00,29.0,6.0,30.27,NNE,27,8.0,-999.0,36,-99.99,,,0.00,0.0,cwc,2013-01-07 18:20:00,
2013-01-07 11:25:00,30.3,7.3,30.27,North,0,6.0,-999.0,36,-99.99,,,0.00,0.0,cwc,2013-01-07 18:25:00,
2013-01-07 11:30:00,31.0,6.9,30.27,North,0,6.0,-999.0,33,-99.99,,,0.00,0.0,cwc,2013-01-07 18:30:00,
2013-01-07 11:35:00,30.3,5.8,30.24,North,11,13.0,-999.0,32,-99.99,,,0.00,0.0,cwc,2013-01-07 18:35:00,
2013-01-07 11:40:00,30.3,5.8,30.24,NNE,21,16.0,-999.0,32,-99.99,,,0.00,0.0,cwc,2013-01-07 18:40:00,
2013-01-07 11:45:00,30.7,6.6,30.24,NNE,16,14.0,-999.0,33,-99.99,,,0.00,0.0,cwc,2013-01-07 18:45:00,
2013-01-07 11:50:00,31.2,6.7,30.22,North,0,10.0,-999.0,32,-99.99,,,0.00,0.0,cwc,2013-01-07 18:50:00,
2013-01-07 11:55:00,31.8,7.3,30.22,North,359,9.0,-999.0,32,-99.99,,,0.00,0.0,cwc,2013-01-07 18:55:00,
2013-01-07 12:00:00,31.9,7.4,30.22,North,10,10.0,-999.0,32,-99.99,,,0.00,0.0,cwc,2013-01-07 19:00:00,
2013-01-07 12:05:00,32.8,8.0,30.21,North,353,8.0,-999.0,31,-99.99,,,0.00,0.0,cwc,2013-01-07 19:05:00,
2013-01-07 12:10:00,33.2,7.6,30.21,NE,44,7.0,-999.0,29,-99.99,,,0.00,0.0,cwc,2013-01-07 19:10:00,
2013-01-07 12:15:00,33.4,7.8,30.21,North,0,11.0,-999.0,29,-99.99,,,0.00,0.0,cwc,2013-01-07 19:15:00,
2013-01-07 12:20:00,33.7,8.1,30.16,NNE,17,11.0,-999.0,29,-99.99,,,0.00,0.0,cwc,2013-01-07 19:20:00,
2013-01-07 12:25:00,33.8,7.9,30.16,North,6,9.0,-999.0,28,-99.99,,,0.00,0.0,cwc,2013-01-07 19:25:00,
2013-01-07 12:30:00,33.8,7.9,30.16,North,7,7.0,-999.0,28,-99.99,,,0.00,0.0,cwc,2013-01-07 19:30:00,
2013-01-07 12:35:00,33.8,8.2,30.15,NNE,17,9.0,-999.0,29,-99.99,,,0.00,0.0,cwc,2013-01-07 19:35:00,
2013-01-07 12:40:00,34.3,9.1,30.15,NE,51,4.0,-999.0,30,-99.99,,,0.00,0.0,cwc,2013-01-07 19:40:00,
2013-01-07 12:45:00,34.6,8.7,30.15,NE,37,8.0,-999.0,28,-99.99,,,0.00,0.0,cwc,2013-01-07 19:45:00,
2013-01-07 12:50:00,34.7,9.1,30.14,North,356,9.0,-999.0,29,-99.99,,,0.00,0.0,cwc,2013-01-07 19:50:00,
2013-01-07 12:55:00,35.0,8.7,30.14,NE,49,15.0,-999.0,27,-99.99,,,0.00,0.0,cwc,2013-01-07 19:55:00,
2013-01-07 13:00:00,35.3,9.4,30.14,NE,37,4.0,-999.0,28,-99.99,,,0.00,0.0,cwc,2013-01-07 20:00:00,
2013-01-07 13:05:00,35.2,9.3,30.13,NE,44,14.0,-999.0,28,-99.99,,,0.00,0.0,cwc,2013-01-07 20:05:00,
2013-01-07 13:10:00,35.2,9.3,30.13,NE,41,6.0,-999.0,28,-99.99,,,0.00,0.0,cwc,2013-01-07 20:10:00,
2013-01-07 13:15:00,35.3,9.4,30.13,NNE,25,11.0,-999.0,28,-99.99,,,0.00,0.0,cwc,2013-01-07 20:15:00,
2013-01-07 13:20:00,35.6,9.7,30.12,NE,37,7.0,-999.0,28,-99.99,,,0.00,0.0,cwc,2013-01-07 20:20:00,
2013-01-07 13:25:00,35.6,9.7,30.12,NE,45,11.0,-999.0,28,-99.99,,,0.00,0.0,cwc,2013-01-07 20:25:00,
2013-01-07 13:30:00,35.5,9.9,30.12,NE,41,20.0,-999.0,29,-99.99,,,0.00,0.0,cwc,2013-01-07 20:30:00,
2013-01-07 13:35:00,35.6,9.7,30.11,NNE,25,18.0,-999.0,28,-99.99,,,0.00,0.0,cwc,2013-01-07 20:35:00,
2013-01-07 13:40:00,35.9,10.3,30.11,NE,42,10.0,-999.0,29,-99.99,,,0.00,0.0,cwc,2013-01-07 20:40:00,
2013-01-07 13:45:00,36.0,10.1,30.11,NNE,30,18.0,-999.0,28,-99.99,,,0.00,0.0,cwc,2013-01-07 20:45:00,
2013-01-07 13:50:00,36.3,10.4,30.10,NE,49,17.0,-999.0,28,-99.99,,,0.00,0.0,cwc,2013-01-07 20:50:00,
2013-01-07 13:55:00,36.5,10.6,30.10,NE,37,10.0,-999.0,28,-99.99,,,0.00,0.0,cwc,2013-01-07 20:55:00,
2013-01-07 14:00:00,36.5,10.6,30.10,NNE,24,16.0,-999.0,28,-99.99,,,0.00,0.0,cwc,2013-01-07 21:00:00,
2013-01-07 14:05:00,36.3,10.4,30.10,NNE,21,9.0,-999.0,28,-99.99,,,0.00,0.0,cwc,2013-01-07 21:05:00,
2013-01-07 14:10:00,36.6,10.7,30.10,NE,44,13.0,-999.0,28,-99.99,,,0.00,0.0,cwc,2013-01-07 21:10:00,
2013-01-07 14:15:00,36.9,11.7,30.10,NE,40,15.0,-999.0,30,-99.99,,,0.00,0.0,cwc,2013-01-07 21:15:00,
2013-01-07 14:20:00,36.9,11.0,30.09,NE,44,10.0,-999.0,28,-99.99,,,0.00,0.0,cwc,2013-01-07 21:20:00,
2013-01-07 14:25:00,36.8,11.6,30.09,NE,42,7.0,-999.0,30,-99.99,,,0.00,0.0,cwc,2013-01-07 21:25:00,
2013-01-07 14:30:00,36.6,11.0,30.09,NNE,21,10.0,-999.0,29,-99.99,,,0.00,0.0,cwc,2013-01-07 21:30:00,
2013-01-07 14:35:00,36.6,11.0,30.08,NE,38,11.0,-999.0,29,-99.99,,,0.00,0.0,cwc,2013-01-07 21:35:00,
2013-01-07 14:40:00,37.0,11.1,30.08,NNE,16,10.0,-999.0,28,-99.99,,,0.00,0.0,cwc,2013-01-07 21:40:00,
2013-01-07 14:45:00,37.3,11.4,30.08,NE,34,10.0,-999.0,28,-99.99,,,0.00,0.0,cwc,2013-01-07 21:45:00,
2013-01-07 14:50:00,37.3,11.4,30.09,NE,45,10.0,-999.0,28,-99.99,,,0.00,0.0,cwc,2013-01-07 21:50:00,
2013-01-07 14:55:00,37.3,11.7,30.09,NNE,21,4.0,-999.0,29,-99.99,,,0.00,0.0,cwc,2013-01-07 21:55:00,
2013-01-07 15:00:00,37.2,11.3,30.09,North,10,6.0,-999.0,28,-99.99,,,0.00,0.0,cwc,2013-01-07 22:00:00,
2013-01-07 15:05:00,37.2,11.3,30.09,NE,40,10.0,-999.0,28,-99.99,,,0.00,0.0,cwc,2013-01-07 22:05:00,
2013-01-07 15:10:00,37.0,11.4,30.09,NE,40,8.0,-999.0,29,-99.99,,,0.00,0.0,cwc,2013-01-07 22:10:00,
2013-01-07 15:15:00,37.2,11.6,30.09,NE,34,0.0,-999.0,29,-99.99,,,0.00,0.0,cwc,2013-01-07 22:15:00,
2013-01-07 15:20:00,37.5,11.9,30.10,North,359,8.0,-999.0,29,-99.99,,,0.00,0.0,cwc,2013-01-07 22:20:00,
2013-01-07 15:25:00,37.3,11.4,30.10,North,6,4.0,-999.0,28,-99.99,,,0.00,0.0,cwc,2013-01-07 22:25:00,
2013-01-07 15:30:00,36.9,12.1,30.10,North,8,9.0,-999.0,31,-99.99,,,0.00,0.0,cwc,2013-01-07 22:30:00,
2013-01-07 15:35:00,36.8,11.6,30.10,North,8,8.0,-999.0,30,-99.99,,,0.00,0.0,cwc,2013-01-07 22:35:00,
2013-01-07 15:40:00,36.5,11.3,30.10,North,6,9.0,-999.0,30,-99.99,,,0.00,0.0,cwc,2013-01-07 22:40:00,
2013-01-07 15:45:00,36.3,11.1,30.10,NNE,13,9.0,-999.0,30,-99.99,,,0.00,0.0,cwc,2013-01-07 22:45:00,
2013-01-07 15:50:00,36.2,11.0,30.12,North,10,10.0,-999.0,30,-99.99,,,0.00,0.0,cwc,2013-01-07 22:50:00,
2013-01-07 15:55:00,36.0,11.2,30.12,NNE,27,4.0,-999.0,31,-99.99,,,0.00,0.0,cwc,2013-01-07 22:55:00,
2013-01-07 16:00:00,35.9,11.1,30.12,NNE,27,7.0,-999.0,31,-99.99,,,0.00,0.0,cwc,2013-01-07 23:00:00,
2013-01-07 16:05:00,35.8,9.9,30.12,NE,40,8.0,-999.0,28,-99.99,,,0.00,0.0,cwc,2013-01-07 23:05:00,
2013-01-07 16:10:00,35.6,10.0,30.12,NE,44,7.0,-999.0,29,-99.99,,,0.00,0.0,cwc,2013-01-07 23:10:00,
2013-01-07 16:15:00,35.5,10.3,30.12,NNE,17,7.0,-999.0,30,-99.99,,,0.00,0.0,cwc,2013-01-07 23:15:00,
2013-01-07 16:20:00,35.5,9.9,30.11,NE,41,4.0,-999.0,29,-99.99,,,0.00,0.0,cwc,2013-01-07 23:20:00,
2013-01-07 16:25:00,35.0,10.9,30.11,NNE,31,4.0,-999.0,33,-99.99,,,0.00,0.0,cwc,2013-01-07 23:25:00,
2013-01-07 16:30:00,34.7,10.2,30.11,NE,38,9.0,-999.0,32,-99.99,,,0.00,0.0,cwc,2013-01-07 23:30:00,
2013-01-07 16:35:00,34.7,10.9,30.11,NE,42,7.0,-999.0,34,-99.99,,,0.00,0.0,cwc,2013-01-07 23:35:00,
2013-01-07 16:40:00,34.7,10.6,30.11,NE,37,8.0,-999.0,33,-99.99,,,0.00,0.0,cwc,2013-01-07 23:40:00,
2013-01-07 16:45:00,34.4,10.3,30.11,NE,40,6.0,-999.0,33,-99.99,,,0.00,0.0,cwc,2013-01-07 23:45:00,
2013-01-07 16:50:00,34.0,10.2,30.12,NE,44,8.0,-999.0,34,-99.99,,,0.00,0.0,cwc,2013-01-07 23:50:00,
2013-01-07 16:55:00,33.7,9.9,30.12,NE,38,8.0,-999.0,34,-99.99,,,0.00,0.0,cwc,2013-01-07 23:55:00,
2013-01-07 17:00:00,33.5,10.1,30.12,NNE,23,0.0,-999.0,35,-99.99,,,0.00,0.0,cwc,2013-01-08 00:00:00,
2013-01-07 17:05:00,33.2,9.8,30.12,NE,44,8.0,-999.0,35,-99.99,,,0.00,0.0,cwc,2013-01-08 00:05:00,
2013-01-07 17:10:00,32.8,9.8,30.12,NNE,24,10.0,-999.0,36,-99.99,,,0.00,0.0,cwc,2013-01-08 00:10:00,
2013-01-07 17:15:00,32.5,10.2,30.12,NNE,17,8.0,-999.0,38,-99.99,,,0.00,0.0,cwc,2013-01-08 00:15:00,
2013-01-07 17:20:00,32.2,9.5,30.14,North,6,6.0,-999.0,37,-99.99,,,0.00,0.0,cwc,2013-01-08 00:20:00,
2013-01-07 17:25:00,32.1,9.4,30.14,NNE,14,0.0,-999.0,37,-99.99,,,0.00,0.0,cwc,2013-01-08 00:25:00,
2013-01-07 17:30:00,31.8,9.5,30.14,NNE,21,0.0,-999.0,38,-99.99,,,0.00,0.0,cwc,2013-01-08 00:30:00,
2013-01-07 17:35:00,31.3,9.0,30.15,North,354,2.0,-999.0,38,-99.99,,,0.00,0.0,cwc,2013-01-08 00:35:00,
2013-01-07 17:40:00,31.0,8.7,30.15,North,359,7.0,-999.0,38,-99.99,,,0.00,0.0,cwc,2013-01-08 00:40:00,
2013-01-07 17:45:00,30.7,8.7,30.15,North,349,4.0,-999.0,39,-99.99,,,0.00,0.0,cwc,2013-01-08 00:45:00,
2013-01-07 17:50:00,30.4,8.4,30.17,North,359,1.0,-999.0,39,-99.99,,,0.00,0.0,cwc,2013-01-08 00:50:00,
2013-01-07 17:55:00,30.1,7.8,30.17,North,349,6.0,-999.0,38,-99.99,,,0.00,0.0,cwc,2013-01-08 00:55:00,
2013-01-07 18:00:00,29.8,8.2,30.17,North,359,2.0,-999.0,40,-99.99,,,0.00,0.0,cwc,2013-01-08 01:00:00,
2013-01-07 18:10:00,29.7,8.1,30.17,North,1,11.0,-999.0,40,-99.99,,,0.00,0.0,cwc,2013-01-08 01:10:00,
2013-01-07 18:15:00,29.4,8.2,30.17,NNE,20,4.0,-999.0,41,-99.99,,,0.00,0.0,cwc,2013-01-08 01:15:00,
2013-01-07 18:20:00,29.3,8.1,30.19,NNE,20,8.0,-999.0,41,-99.99,,,0.00,0.0,cwc,2013-01-08 01:20:00,
2013-01-07 18:25:00,29.3,8.1,30.19,NNE,13,1.0,-999.0,41,-99.99,,,0.00,0.0,cwc,2013-01-08 01:25:00,
2013-01-07 18:30:00,28.8,8.3,30.19,NNE,13,0.0,-999.0,43,-99.99,,,0.00,0.0,cwc,2013-01-08 01:30:00,
2013-01-07 18:35:00,29.7,13.9,30.20,NNE,13,0.0,-999.0,56,-99.99,,,0.00,0.0,cwc,2013-01-08 01:35:00,
2013-01-07 18:40:00,29.3,13.1,30.20,NNE,13,0.0,-999.0,55,-99.99,,,0.00,0.0,cwc,2013-01-08 01:40:00,
2013-01-07 18:45:00,28.8,11.5,30.20,NNE,13,0.0,-999.0,52,-99.99,,,0.00,0.0,cwc,2013-01-08 01:45:00,
2013-01-07 18:50:00,27.8,8.7,30.19,NNE,13,0.0,-999.0,47,-99.99,,,0.00,0.0,cwc,2013-01-08 01:50:00,
2013-01-07 18:55:00,27.5,8.8,30.19,NNE,13,0.0,-999.0,48,-99.99,,,0.00,0.0,cwc,2013-01-08 01:55:00,
2013-01-07 19:00:00,29.4,18.2,30.19,NNE,13,0.0,-999.0,69,-99.99,,,0.00,0.0,cwc,2013-01-08 02:00:00,
2013-01-07 19:05:00,35.8,23.2,30.19,NNE,13,0.0,-999.0,65,-99.99,,,0.00,0.0,cwc,2013-01-08 02:05:00,
2013-01-07 19:10:00,36.3,5.0,30.19,NNE,13,0.0,-999.0,13,-99.99,,,0.00,0.0,cwc,2013-01-08 02:10:00,
2013-01-07 19:15:00,40.5,7.7,30.19,NNE,13,0.0,-999.0,9,-99.99,,,0.00,0.0,cwc,2013-01-08 02:15:00,
2013-01-07 19:20:00,35.9,35.9,30.06,NNE,13,0.0,-999.0,100,-99.99,,,0.00,0.0,cwc,2013-01-08 02:20:00,
2013-01-07 19:25:00,27.8,27.8,30.06,NNE,13,0.0,-999.0,100,-99.99,,,0.00,0.0,cwc,2013-01-08 02:25:00,
2013-01-07 19:30:00,25.7,25.7,30.06,NNE,13,0.0,-999.0,100,-99.99,,,0.00,0.0,cwc,2013-01-08 02:30:00,
2013-01-07 19:35:00,28.5,28.5,30.20,NNE,13,0.0,-999.0,100,-99.99,,,0.00,0.0,cwc,2013-01-08 02:35:00,
2013-01-07 19:40:00,24.2,24.2,30.20,North,354,4.0,-999.0,100,-99.99,,,0.00,0.0,cwc,2013-01-08 02:40:00,
2013-01-07 19:45:00,23.3,23.3,30.20,NNE,14,2.0,-999.0,100,-99.99,,,0.00,0.0,cwc,2013-01-08 02:45:00,
2013-01-07 19:50:00,23.2,23.2,30.23,NNE,17,9.0,-999.0,100,-99.99,,,0.00,0.0,cwc,2013-01-08 02:50:00,
2013-01-07 19:55:00,23.8,23.8,30.23,NE,35,9.0,-999.0,100,-99.99,,,0.00,0.0,cwc,2013-01-08 02:55:00,
2013-01-07 20:00:00,23.9,23.9,30.23,NE,38,13.0,-999.0,100,-99.99,,,0.00,0.0,cwc,2013-01-08 03:00:00,
2013-01-07 20:05:00,24.1,24.1,30.23,ENE,62,6.0,-999.0,100,-99.99,,,0.00,0.0,cwc,2013-01-08 03:05:00,
2013-01-07 20:10:00,23.8,5.8,30.23,North,0,6.0,-999.0,50,-99.99,,,0.00,0.0,cwc,2013-01-08 03:10:00,
2013-01-07 20:15:00,23.3,5.7,30.23,North,0,4.0,-999.0,51,-99.99,,,0.00,0.0,cwc,2013-01-08 03:15:00,
2013-01-07 20:20:00,23.3,5.3,30.25,NW,304,0.0,-999.0,50,-99.99,,,0.00,0.0,cwc,2013-01-08 03:20:00,
2013-01-07 20:25:00,23.0,5.7,30.25,NW,304,7.0,-999.0,52,-99.99,,,0.00,0.0,cwc,2013-01-08 03:25:00,
2013-01-07 20:30:00,22.9,5.3,30.25,NW,309,1.0,-999.0,51,-99.99,,,0.00,0.0,cwc,2013-01-08 03:30:00,
2013-01-07 20:35:00,22.4,5.1,30.25,NW,309,0.0,-999.0,52,-99.99,,,0.00,0.0,cwc,2013-01-08 03:35:00,
2013-01-07 20:40:00,21.8,5.2,30.25,NW,309,0.0,-999.0,54,-99.99,,,0.00,0.0,cwc,2013-01-08 03:40:00,
2013-01-07 20:45:00,21.3,5.5,30.25,NW,309,0.0,-999.0,56,-99.99,,,0.00,0.0,cwc,2013-01-08 03:45:00,
2013-01-07 20:50:00,21.1,7.8,30.25,NW,309,0.0,-999.0,63,-99.99,,,0.00,0.0,cwc,2013-01-08 03:50:00,
2013-01-07 20:55:00,20.5,7.2,30.25,NW,309,0.0,-999.0,63,-99.99,,,0.00,0.0,cwc,2013-01-08 03:55:00,
2013-01-07 21:00:00,21.9,8.9,30.25,NW,309,0.0,-999.0,64,-99.99,,,0.00,0.0,cwc,2013-01-08 04:00:00,
2013-01-07 21:05:00,21.1,12.1,30.25,NW,309,0.0,-999.0,75,-99.99,,,0.00,0.0,cwc,2013-01-08 04:05:00,
2013-01-07 21:10:00,20.3,9.9,30.25,NW,309,0.0,-999.0,71,-99.99,,,0.00,0.0,cwc,2013-01-08 04:10:00,
2013-01-07 21:15:00,20.5,8.6,30.25,NW,309,0.0,-999.0,67,-99.99,,,0.00,0.0,cwc,2013-01-08 04:15:00,
2013-01-07 21:20:00,19.2,8.0,30.23,NW,309,0.0,-999.0,69,-99.99,,,0.00,0.0,cwc,2013-01-08 04:20:00,
2013-01-07 21:25:00,18.4,5.8,30.23,South,189,0.0,-999.0,65,-99.99,,,0.00,0.0,cwc,2013-01-08 04:25:00,
2013-01-07 21:30:00,18.8,8.4,30.23,South,189,0.0,-999.0,71,-99.99,,,0.00,0.0,cwc,2013-01-08 04:30:00,
2013-01-07 21:35:00,18.0,7.2,30.25,South,189,0.0,-999.0,70,-99.99,,,0.00,0.0,cwc,2013-01-08 04:35:00,
2013-01-07 21:40:00,17.5,5.6,30.25,South,188,0.0,-999.0,67,-99.99,,,0.00,0.0,cwc,2013-01-08 04:40:00,
2013-01-07 21:45:00,16.2,4.0,30.25,SSE,161,1.0,-999.0,66,-99.99,,,0.00,0.0,cwc,2013-01-08 04:45:00,
2013-01-07 21:50:00,15.7,3.8,30.22,SSE,161,0.0,-999.0,67,-99.99,,,0.00,0.0,cwc,2013-01-08 04:50:00,
2013-01-07 21:55:00,15.2,3.7,30.22,SSE,161,0.0,-999.0,68,-99.99,,,0.00,0.0,cwc,2013-01-08 04:55:00,
2013-01-07 22:05:00,24.4,12.5,30.26,SSE,161,0.0,-999.0,67,-99.99,,,0.00,0.0,cwc,2013-01-08 05:05:00,
2013-01-07 22:10:00,18.3,2.5,30.26,SSE,161,0.0,-999.0,56,-99.99,,,0.00,0.0,cwc,2013-01-08 05:10:00,
2013-01-07 22:15:00,15.1,9.0,30.26,SSE,161,0.0,-999.0,83,-99.99,,,0.00,0.0,cwc,2013-01-08 05:15:00,
2013-01-07 22:20:00,14.6,8.1,30.21,SSE,161,0.0,-999.0,82,-99.99,,,0.00,0.0,cwc,2013-01-08 05:20:00,
2013-01-07 22:25:00,16.2,6.5,30.21,SSE,161,0.0,-999.0,73,-99.99,,,0.00,0.0,cwc,2013-01-08 05:25:00,
2013-01-07 22:30:00,14.4,6.8,30.21,SSE,167,2.0,-999.0,79,-99.99,,,0.00,0.0,cwc,2013-01-08 05:30:00,
2013-01-07 22:35:00,16.2,10.1,30.23,SSE,167,0.0,-999.0,83,-99.99,,,0.00,0.0,cwc,2013-01-08 05:35:00,
2013-01-07 22:40:00,15.1,15.1,30.23,SSW,200,4.0,-999.0,100,-99.99,,,0.00,0.0,cwc,2013-01-08 05:40:00,
2013-01-07 22:45:00,15.6,15.6,30.23,South,189,0.0,-999.0,100,-99.99,,,0.00,0.0,cwc,2013-01-08 05:45:00,
2013-01-07 22:50:00,15.6,15.6,30.22,NNE,27,0.0,-999.0,100,-99.99,,,0.00,0.0,cwc,2013-01-08 05:50:00,
2013-01-07 22:55:00,14.9,14.9,30.22,NNE,27,0.0,-999.0,100,-99.99,,,0.00,0.0,cwc,2013-01-08 05:55:00,
2013-01-07 23:00:00,14.1,14.1,30.22,NNE,27,0.0,-999.0,100,-99.99,,,0.00,0.0,cwc,2013-01-08 06:00:00,
2013-01-07 23:05:00,14.3,14.3,30.23,NNE,27,0.0,-999.0,100,-99.99,,,0.00,0.0,cwc,2013-01-08 06:05:00,
2013-01-07 23:10:00,14.4,14.4,30.23,NNE,27,0.0,-999.0,100,-99.99,,,0.00,0.0,cwc,2013-01-08 06:10:00,
2013-01-07 23:20:00,13.6,13.6,30.19,NNE,27,0.0,-999.0,100,-99.99,,,0.00,0.0,cwc,2013-01-08 06:20:00,
2013-01-07 23:25:00,12.9,12.9,30.19,NNE,27,0.0,-999.0,100,-99.99,,,0.00,0.0,cwc,2013-01-08 06:25:00,
2013-01-07 23:30:00,16.5,11.1,30.19,NNE,27,0.0,-999.0,85,-99.99,,,0.00,0.0,cwc,2013-01-08 06:30:00,
2013-01-07 23:35:00,15.4,8.9,30.18,NNE,27,0.0,-999.0,82,-99.99,,,0.00,0.0,cwc,2013-01-08 06:35:00,
2013-01-07 23:40:00,14.1,10.5,30.18,NNE,27,0.0,-999.0,90,-99.99,,,0.00,0.0,cwc,2013-01-08 06:40:00,
2013-01-07 23:45:00,12.9,8.9,30.18,NNE,27,0.0,-999.0,89,-99.99,,,0.00,0.0,cwc,2013-01-08 06:45:00,
2013-01-07 23:50:00,19.4,16.2,30.23,NNE,27,0.0,-999.0,91,-99.99,,,0.00,0.0,cwc,2013-01-08 06:50:00,
2013-01-07 23:55:00,18.1,6.6,30.23,NNE,27,2.0,-999.0,68,-99.99,,,0.00,0.0,cwc,2013-01-08 06:55:00,